sensor_id;sensor_type;location;lat;lon;timestamp;pressure;altitude;pressure_sealevel;temperature;humidity
64711;BME280;51139;45.626;6.850;2022-07-29T00:00:28;82298.72;;;16.09;45.02
64711;BME280;51139;45.626;6.850;2022-07-29T00:02:53;82302.81;;;15.88;45.91
64711;BME280;51139;45.626;6.850;2022-07-29T00:05:19;82297.63;;;15.90;46.07
64711;BME280;51139;45.626;6.850;2022-07-29T00:07:44;82295.44;;;15.99;46.03
64711;BME280;51139;45.626;6.850;2022-07-29T00:10:09;82306.31;;;15.91;45.77
64711;BME280;51139;45.626;6.850;2022-07-29T00:12:35;82309.81;;;15.94;46.02
64711;BME280;51139;45.626;6.850;2022-07-29T00:15:01;82296.59;;;16.08;45.60
64711;BME280;51139;45.626;6.850;2022-07-29T00:17:26;82303.47;;;16.11;45.38
64711;BME280;51139;45.626;6.850;2022-07-29T00:19:52;82300.31;;;16.02;45.81
64711;BME280;51139;45.626;6.850;2022-07-29T00:22:19;82303.56;;;16.01;45.79
64711;BME280;51139;45.626;6.850;2022-07-29T00:24:44;82298.00;;;16.09;45.92
64711;BME280;51139;45.626;6.850;2022-07-29T00:27:09;82293.53;;;15.89;46.36
64711;BME280;51139;45.626;6.850;2022-07-29T00:29:35;82296.38;;;16.03;45.61
64711;BME280;51139;45.626;6.850;2022-07-29T00:32:01;82303.09;;;16.04;45.75
64711;BME280;51139;45.626;6.850;2022-07-29T00:34:27;82298.69;;;15.97;46.09
64711;BME280;51139;45.626;6.850;2022-07-29T00:37:10;82296.84;;;15.78;46.48
64711;BME280;51139;45.626;6.850;2022-07-29T00:39:36;82299.97;;;15.74;46.33
64711;BME280;51139;45.626;6.850;2022-07-29T00:42:04;82301.00;;;15.69;46.67
64711;BME280;51139;45.626;6.850;2022-07-29T00:44:30;82298.28;;;15.57;47.47
64711;BME280;51139;45.626;6.850;2022-07-29T00:46:55;82297.59;;;15.57;47.11
64711;BME280;51139;45.626;6.850;2022-07-29T00:49:21;82302.16;;;15.44;47.32
64711;BME280;51139;45.626;6.850;2022-07-29T00:51:47;82299.69;;;15.58;46.85
64711;BME280;51139;45.626;6.850;2022-07-29T00:54:13;82297.50;;;15.67;46.80
64711;BME280;51139;45.626;6.850;2022-07-29T00:56:39;82292.56;;;15.51;47.08
64711;BME280;51139;45.626;6.850;2022-07-29T00:59:04;82296.22;;;15.34;47.25
64711;BME280;51139;45.626;6.850;2022-07-29T01:01:30;82287.44;;;15.22;47.90
64711;BME280;51139;45.626;6.850;2022-07-29T01:03:55;82285.38;;;15.20;48.01
64711;BME280;51139;45.626;6.850;2022-07-29T01:06:20;82288.72;;;15.21;48.04
64711;BME280;51139;45.626;6.850;2022-07-29T01:08:47;82293.25;;;15.18;47.88
64711;BME280;51139;45.626;6.850;2022-07-29T01:11:14;82291.91;;;15.29;48.07
64711;BME280;51139;45.626;6.850;2022-07-29T01:13:42;82291.50;;;15.44;47.66
64711;BME280;51139;45.626;6.850;2022-07-29T01:16:13;82292.75;;;15.43;47.48
64711;BME280;51139;45.626;6.850;2022-07-29T01:18:46;82285.34;;;15.42;47.69
64711;BME280;51139;45.626;6.850;2022-07-29T01:21:24;82288.66;;;15.30;47.76
64711;BME280;51139;45.626;6.850;2022-07-29T01:24:14;82286.31;;;15.25;47.79
64711;BME280;51139;45.626;6.850;2022-07-29T01:26:59;82291.72;;;15.37;47.09
64711;BME280;51139;45.626;6.850;2022-07-29T01:29:43;82288.69;;;15.64;46.75
64711;BME280;51139;45.626;6.850;2022-07-29T01:32:12;82292.28;;;15.90;46.32
64711;BME280;51139;45.626;6.850;2022-07-29T01:37:48;82280.00;;;15.75;46.31
64711;BME280;51139;45.626;6.850;2022-07-29T01:40:40;82287.91;;;15.85;46.20
64711;BME280;51139;45.626;6.850;2022-07-29T01:43:14;82286.78;;;15.88;45.89
64711;BME280;51139;45.626;6.850;2022-07-29T01:45:43;82274.19;;;16.01;45.29
64711;BME280;51139;45.626;6.850;2022-07-29T01:50:50;82281.16;;;16.18;44.65
64711;BME280;51139;45.626;6.850;2022-07-29T01:53:31;82270.47;;;16.18;44.96
64711;BME280;51139;45.626;6.850;2022-07-29T01:55:59;82267.84;;;16.30;44.35
64711;BME280;51139;45.626;6.850;2022-07-29T01:58:27;82273.16;;;16.06;44.63
64711;BME280;51139;45.626;6.850;2022-07-29T02:00:55;82268.50;;;16.07;44.86
64711;BME280;51139;45.626;6.850;2022-07-29T02:03:23;82268.28;;;16.14;44.57
64711;BME280;51139;45.626;6.850;2022-07-29T02:05:49;82266.91;;;16.37;44.66
64711;BME280;51139;45.626;6.850;2022-07-29T02:08:17;82267.47;;;16.24;45.51
64711;BME280;51139;45.626;6.850;2022-07-29T02:10:45;82260.63;;;16.21;45.31
64711;BME280;51139;45.626;6.850;2022-07-29T02:13:13;82260.72;;;16.11;45.95
64711;BME280;51139;45.626;6.850;2022-07-29T02:15:42;82262.91;;;16.02;46.43
64711;BME280;51139;45.626;6.850;2022-07-29T02:18:13;82270.31;;;15.92;46.40
64711;BME280;51139;45.626;6.850;2022-07-29T02:20:42;82263.75;;;15.71;46.50
64711;BME280;51139;45.626;6.850;2022-07-29T02:23:13;82257.19;;;15.51;47.39
64711;BME280;51139;45.626;6.850;2022-07-29T02:25:41;82255.03;;;15.37;47.83
64711;BME280;51139;45.626;6.850;2022-07-29T02:28:08;82253.69;;;15.48;47.16
64711;BME280;51139;45.626;6.850;2022-07-29T02:30:36;82247.97;;;15.42;47.92
64711;BME280;51139;45.626;6.850;2022-07-29T02:33:05;82258.97;;;15.58;47.24
64711;BME280;51139;45.626;6.850;2022-07-29T02:35:31;82258.97;;;15.36;47.67
64711;BME280;51139;45.626;6.850;2022-07-29T02:37:57;82257.44;;;15.55;47.38
64711;BME280;51139;45.626;6.850;2022-07-29T02:40:42;82260.78;;;15.89;46.73
64711;BME280;51139;45.626;6.850;2022-07-29T02:43:08;82263.19;;;15.85;46.54
64711;BME280;51139;45.626;6.850;2022-07-29T02:45:35;82257.97;;;15.87;46.06
64711;BME280;51139;45.626;6.850;2022-07-29T02:48:05;82257.81;;;15.73;46.22
64711;BME280;51139;45.626;6.850;2022-07-29T02:50:37;82268.34;;;15.59;47.15
64711;BME280;51139;45.626;6.850;2022-07-29T02:53:18;82257.63;;;15.47;46.87
64711;BME280;51139;45.626;6.850;2022-07-29T02:55:47;82252.16;;;15.11;48.14
64711;BME280;51139;45.626;6.850;2022-07-29T02:58:25;82251.50;;;15.01;48.50
64711;BME280;51139;45.626;6.850;2022-07-29T03:01:08;82254.69;;;15.09;48.35
64711;BME280;51139;45.626;6.850;2022-07-29T03:03:37;82250.63;;;15.08;48.33
64711;BME280;51139;45.626;6.850;2022-07-29T03:06:03;82249.72;;;15.15;48.38
64711;BME280;51139;45.626;6.850;2022-07-29T03:08:31;82255.06;;;15.15;48.29
64711;BME280;51139;45.626;6.850;2022-07-29T03:10:57;82247.28;;;15.08;48.17
64711;BME280;51139;45.626;6.850;2022-07-29T03:13:23;82248.91;;;15.13;48.32
64711;BME280;51139;45.626;6.850;2022-07-29T03:15:50;82247.78;;;15.16;48.53
64711;BME280;51139;45.626;6.850;2022-07-29T03:18:15;82240.41;;;15.05;48.70
64711;BME280;51139;45.626;6.850;2022-07-29T03:20:41;82246.69;;;15.09;49.24
64711;BME280;51139;45.626;6.850;2022-07-29T03:23:08;82235.19;;;15.28;48.14
64711;BME280;51139;45.626;6.850;2022-07-29T03:25:33;82246.47;;;15.39;47.27
64711;BME280;51139;45.626;6.850;2022-07-29T03:27:59;82239.28;;;15.87;46.30
64711;BME280;51139;45.626;6.850;2022-07-29T03:30:24;82240.63;;;15.98;46.05
64711;BME280;51139;45.626;6.850;2022-07-29T03:32:50;82244.53;;;15.51;47.44
64711;BME280;51139;45.626;6.850;2022-07-29T03:35:16;82241.94;;;15.41;47.77
64711;BME280;51139;45.626;6.850;2022-07-29T03:37:42;82237.88;;;15.40;47.30
64711;BME280;51139;45.626;6.850;2022-07-29T03:40:11;82242.53;;;15.40;47.38
64711;BME280;51139;45.626;6.850;2022-07-29T03:42:39;82237.47;;;15.56;46.98
64711;BME280;51139;45.626;6.850;2022-07-29T03:45:09;82230.16;;;15.23;47.79
64711;BME280;51139;45.626;6.850;2022-07-29T03:47:38;82233.63;;;14.92;48.68
64711;BME280;51139;45.626;6.850;2022-07-29T03:50:09;82237.84;;;14.85;48.97
64711;BME280;51139;45.626;6.850;2022-07-29T03:52:36;82226.00;;;14.76;49.43
64711;BME280;51139;45.626;6.850;2022-07-29T03:55:02;82235.69;;;14.93;48.77
64711;BME280;51139;45.626;6.850;2022-07-29T03:57:30;82243.50;;;15.01;48.84
64711;BME280;51139;45.626;6.850;2022-07-29T03:59:56;82249.88;;;14.74;49.32
64711;BME280;51139;45.626;6.850;2022-07-29T04:02:23;82243.22;;;14.53;50.40
64711;BME280;51139;45.626;6.850;2022-07-29T04:04:49;82244.13;;;14.68;49.85
64711;BME280;51139;45.626;6.850;2022-07-29T04:07:15;82249.28;;;14.76;49.04
64711;BME280;51139;45.626;6.850;2022-07-29T04:09:41;82253.34;;;14.77;49.30
64711;BME280;51139;45.626;6.850;2022-07-29T04:12:06;82251.13;;;14.73;49.56
64711;BME280;51139;45.626;6.850;2022-07-29T04:14:33;82253.13;;;14.63;49.55
64711;BME280;51139;45.626;6.850;2022-07-29T04:16:59;82254.69;;;14.87;49.05
64711;BME280;51139;45.626;6.850;2022-07-29T04:19:24;82247.22;;;14.74;49.74
64711;BME280;51139;45.626;6.850;2022-07-29T04:21:50;82251.75;;;14.62;50.00
64711;BME280;51139;45.626;6.850;2022-07-29T04:24:16;82253.81;;;14.73;49.67
64711;BME280;51139;45.626;6.850;2022-07-29T04:26:41;82258.75;;;14.88;49.34
64711;BME280;51139;45.626;6.850;2022-07-29T04:29:07;82256.34;;;15.14;48.09
64711;BME280;51139;45.626;6.850;2022-07-29T04:31:32;82252.66;;;15.53;47.54
64711;BME280;51139;45.626;6.850;2022-07-29T04:33:58;82257.13;;;15.72;46.65
64711;BME280;51139;45.626;6.850;2022-07-29T04:36:23;82257.88;;;15.51;47.49
64711;BME280;51139;45.626;6.850;2022-07-29T04:38:48;82264.69;;;15.42;47.97
64711;BME280;51139;45.626;6.850;2022-07-29T04:41:14;82267.69;;;15.37;47.95
64711;BME280;51139;45.626;6.850;2022-07-29T04:43:39;82268.69;;;15.53;47.61
64711;BME280;51139;45.626;6.850;2022-07-29T04:46:06;82272.06;;;15.54;47.82
64711;BME280;51139;45.626;6.850;2022-07-29T04:48:32;82277.53;;;15.56;47.84
64711;BME280;51139;45.626;6.850;2022-07-29T04:50:58;82279.91;;;15.73;47.87
64711;BME280;51139;45.626;6.850;2022-07-29T04:53:23;82278.38;;;16.16;46.34
64711;BME280;51139;45.626;6.850;2022-07-29T04:55:49;82275.84;;;16.18;46.62
64711;BME280;51139;45.626;6.850;2022-07-29T04:58:14;82274.56;;;16.19;45.07
64711;BME280;51139;45.626;6.850;2022-07-29T05:00:40;82289.78;;;15.83;45.67
64711;BME280;51139;45.626;6.850;2022-07-29T05:03:06;82281.16;;;16.18;45.49
64711;BME280;51139;45.626;6.850;2022-07-29T05:05:31;82290.63;;;16.43;44.92
64711;BME280;51139;45.626;6.850;2022-07-29T05:07:57;82286.22;;;16.83;43.93
64711;BME280;51139;45.626;6.850;2022-07-29T05:10:22;82292.25;;;16.60;44.76
64711;BME280;51139;45.626;6.850;2022-07-29T05:12:48;82283.09;;;16.51;45.38
64711;BME280;51139;45.626;6.850;2022-07-29T05:15:13;82286.69;;;16.80;44.92
64711;BME280;51139;45.626;6.850;2022-07-29T05:17:39;82292.25;;;16.96;44.76
64711;BME280;51139;45.626;6.850;2022-07-29T05:20:05;82293.34;;;17.02;44.38
64711;BME280;51139;45.626;6.850;2022-07-29T05:22:30;82290.50;;;17.12;44.30
64711;BME280;51139;45.626;6.850;2022-07-29T05:24:56;82292.00;;;17.27;43.63
64711;BME280;51139;45.626;6.850;2022-07-29T05:27:21;82294.47;;;17.11;43.57
64711;BME280;51139;45.626;6.850;2022-07-29T05:29:47;82287.56;;;16.13;45.53
64711;BME280;51139;45.626;6.850;2022-07-29T05:32:12;82281.28;;;16.20;45.74
64711;BME280;51139;45.626;6.850;2022-07-29T05:34:38;82277.19;;;15.95;46.94
64711;BME280;51139;45.626;6.850;2022-07-29T05:37:04;82271.41;;;16.11;46.54
64711;BME280;51139;45.626;6.850;2022-07-29T05:39:29;82260.72;;;15.99;46.68
64711;BME280;51139;45.626;6.850;2022-07-29T05:41:54;82267.44;;;16.00;45.84
64711;BME280;51139;45.626;6.850;2022-07-29T05:44:20;82264.16;;;15.89;46.58
64711;BME280;51139;45.626;6.850;2022-07-29T05:46:45;82267.94;;;15.86;46.42
64711;BME280;51139;45.626;6.850;2022-07-29T05:49:11;82258.41;;;16.05;46.00
64711;BME280;51139;45.626;6.850;2022-07-29T05:51:37;82275.59;;;16.14;45.17
64711;BME280;51139;45.626;6.850;2022-07-29T05:54:02;82272.81;;;16.12;44.79
64711;BME280;51139;45.626;6.850;2022-07-29T05:56:28;82276.91;;;16.37;45.31
64711;BME280;51139;45.626;6.850;2022-07-29T05:58:53;82274.72;;;16.69;45.54
64711;BME280;51139;45.626;6.850;2022-07-29T06:01:20;82279.94;;;16.78;45.79
64711;BME280;51139;45.626;6.850;2022-07-29T06:03:46;82281.47;;;16.70;45.89
64711;BME280;51139;45.626;6.850;2022-07-29T06:06:11;82286.09;;;16.93;44.92
64711;BME280;51139;45.626;6.850;2022-07-29T06:08:37;82286.34;;;16.97;45.08
64711;BME280;51139;45.626;6.850;2022-07-29T06:11:04;82279.00;;;16.74;44.86
64711;BME280;51139;45.626;6.850;2022-07-29T06:13:30;82268.88;;;17.08;44.58
64711;BME280;51139;45.626;6.850;2022-07-29T06:15:55;82270.31;;;16.97;44.70
64711;BME280;51139;45.626;6.850;2022-07-29T06:18:21;82269.38;;;16.69;45.47
64711;BME280;51139;45.626;6.850;2022-07-29T06:20:50;82267.84;;;16.54;46.25
64711;BME280;51139;45.626;6.850;2022-07-29T06:23:16;82262.03;;;16.57;46.86
64711;BME280;51139;45.626;6.850;2022-07-29T06:25:42;82280.06;;;16.69;46.78
64711;BME280;51139;45.626;6.850;2022-07-29T06:28:07;82286.44;;;16.75;46.40
64711;BME280;51139;45.626;6.850;2022-07-29T06:30:32;82297.25;;;16.89;46.42
64711;BME280;51139;45.626;6.850;2022-07-29T06:32:58;82310.44;;;15.49;50.55
64711;BME280;51139;45.626;6.850;2022-07-29T06:35:23;82298.25;;;15.02;53.88
64711;BME280;51139;45.626;6.850;2022-07-29T06:37:49;82298.13;;;15.00;55.56
64711;BME280;51139;45.626;6.850;2022-07-29T06:40:14;82306.13;;;14.78;56.21
64711;BME280;51139;45.626;6.850;2022-07-29T06:42:58;82310.94;;;15.35;54.41
64711;BME280;51139;45.626;6.850;2022-07-29T06:45:24;82307.88;;;15.72;54.34
64711;BME280;51139;45.626;6.850;2022-07-29T06:47:49;82311.84;;;15.50;53.05
64711;BME280;51139;45.626;6.850;2022-07-29T06:50:15;82315.94;;;15.63;52.90
64711;BME280;51139;45.626;6.850;2022-07-29T06:52:41;82318.88;;;16.00;51.76
64711;BME280;51139;45.626;6.850;2022-07-29T06:55:07;82321.66;;;15.90;51.25
64711;BME280;51139;45.626;6.850;2022-07-29T06:57:33;82318.88;;;15.67;52.85
64711;BME280;51139;45.626;6.850;2022-07-29T06:59:59;82330.44;;;14.63;56.87
64711;BME280;51139;45.626;6.850;2022-07-29T07:02:24;82318.19;;;15.01;54.71
64711;BME280;51139;45.626;6.850;2022-07-29T07:04:49;82329.50;;;14.90;54.59
64711;BME280;51139;45.626;6.850;2022-07-29T07:07:15;82318.81;;;14.58;56.74
64711;BME280;51139;45.626;6.850;2022-07-29T07:09:40;82328.88;;;15.01;54.40
64711;BME280;51139;45.626;6.850;2022-07-29T07:12:06;82332.22;;;15.67;52.97
64711;BME280;51139;45.626;6.850;2022-07-29T07:14:32;82323.91;;;15.29;53.71
64711;BME280;51139;45.626;6.850;2022-07-29T07:16:57;82321.53;;;15.67;54.22
64711;BME280;51139;45.626;6.850;2022-07-29T07:19:25;82331.69;;;16.14;53.12
64711;BME280;51139;45.626;6.850;2022-07-29T07:21:50;82333.00;;;16.25;52.24
64711;BME280;51139;45.626;6.850;2022-07-29T07:24:17;82320.59;;;16.41;52.71
64711;BME280;51139;45.626;6.850;2022-07-29T07:26:42;82327.97;;;16.07;54.15
64711;BME280;51139;45.626;6.850;2022-07-29T07:29:08;82322.28;;;16.13;52.46
64711;BME280;51139;45.626;6.850;2022-07-29T07:31:33;82318.66;;;16.42;51.54
64711;BME280;51139;45.626;6.850;2022-07-29T07:33:59;82327.63;;;15.79;54.36
64711;BME280;51139;45.626;6.850;2022-07-29T07:36:24;82323.72;;;15.37;57.48
64711;BME280;51139;45.626;6.850;2022-07-29T07:38:49;82324.16;;;14.07;60.55
64711;BME280;51139;45.626;6.850;2022-07-29T07:41:15;82325.94;;;13.73;62.38
64711;BME280;51139;45.626;6.850;2022-07-29T07:43:40;82330.53;;;13.72;61.80
64711;BME280;51139;45.626;6.850;2022-07-29T07:46:06;82331.13;;;13.61;61.19
64711;BME280;51139;45.626;6.850;2022-07-29T07:48:31;82331.84;;;14.22;61.40
64711;BME280;51139;45.626;6.850;2022-07-29T07:50:57;82332.22;;;14.38;59.89
64711;BME280;51139;45.626;6.850;2022-07-29T07:53:22;82334.44;;;15.05;58.02
64711;BME280;51139;45.626;6.850;2022-07-29T07:55:47;82353.00;;;15.03;56.82
64711;BME280;51139;45.626;6.850;2022-07-29T07:58:13;82360.44;;;15.48;56.07
64711;BME280;51139;45.626;6.850;2022-07-29T08:00:38;82365.28;;;15.40;61.63
64711;BME280;51139;45.626;6.850;2022-07-29T08:03:04;82356.72;;;14.88;62.29
64711;BME280;51139;45.626;6.850;2022-07-29T08:05:29;82345.97;;;14.76;63.05
64711;BME280;51139;45.626;6.850;2022-07-29T08:07:55;82342.53;;;15.17;62.42
64711;BME280;51139;45.626;6.850;2022-07-29T08:10:23;82337.84;;;14.64;61.15
64711;BME280;51139;45.626;6.850;2022-07-29T08:13:08;82334.19;;;14.69;60.95
64711;BME280;51139;45.626;6.850;2022-07-29T08:15:35;82338.31;;;14.92;58.02
64711;BME280;51139;45.626;6.850;2022-07-29T08:18:02;82335.03;;;15.25;57.23
64711;BME280;51139;45.626;6.850;2022-07-29T08:20:27;82335.03;;;15.47;56.22
64711;BME280;51139;45.626;6.850;2022-07-29T08:22:53;82329.75;;;15.37;55.91
64711;BME280;51139;45.626;6.850;2022-07-29T08:25:19;82342.31;;;15.03;61.65
64711;BME280;51139;45.626;6.850;2022-07-29T08:27:46;82338.56;;;14.65;63.11
64711;BME280;51139;45.626;6.850;2022-07-29T08:30:12;82338.78;;;15.10;61.05
64711;BME280;51139;45.626;6.850;2022-07-29T08:32:38;82347.38;;;15.09;61.34
64711;BME280;51139;45.626;6.850;2022-07-29T08:35:03;82347.84;;;14.95;59.68
64711;BME280;51139;45.626;6.850;2022-07-29T08:37:29;82347.38;;;15.30;59.00
64711;BME280;51139;45.626;6.850;2022-07-29T08:39:54;82357.66;;;15.02;58.92
64711;BME280;51139;45.626;6.850;2022-07-29T08:42:20;82345.28;;;15.51;57.95
64711;BME280;51139;45.626;6.850;2022-07-29T08:44:45;82347.94;;;15.51;58.61
64711;BME280;51139;45.626;6.850;2022-07-29T08:47:13;82335.72;;;15.04;59.92
64711;BME280;51139;45.626;6.850;2022-07-29T08:49:39;82325.19;;;15.28;59.20
64711;BME280;51139;45.626;6.850;2022-07-29T08:52:06;82321.69;;;15.25;59.91
64711;BME280;51139;45.626;6.850;2022-07-29T08:54:32;82320.66;;;14.87;61.61
64711;BME280;51139;45.626;6.850;2022-07-29T08:56:58;82327.91;;;15.40;58.08
64711;BME280;51139;45.626;6.850;2022-07-29T08:59:26;82317.81;;;14.95;61.54
64711;BME280;51139;45.626;6.850;2022-07-29T09:01:53;82322.25;;;15.24;57.38
64711;BME280;51139;45.626;6.850;2022-07-29T09:04:19;82328.72;;;15.42;59.65
64711;BME280;51139;45.626;6.850;2022-07-29T09:06:48;82332.81;;;15.43;60.27
64711;BME280;51139;45.626;6.850;2022-07-29T09:09:15;82331.41;;;15.42;58.79
64711;BME280;51139;45.626;6.850;2022-07-29T09:11:41;82351.25;;;15.61;61.43
64711;BME280;51139;45.626;6.850;2022-07-29T09:14:07;82353.56;;;15.67;60.41
64711;BME280;51139;45.626;6.850;2022-07-29T09:16:47;82366.84;;;15.76;59.35
64711;BME280;51139;45.626;6.850;2022-07-29T09:19:29;82360.44;;;15.92;57.06
64711;BME280;51139;45.626;6.850;2022-07-29T09:21:56;82356.31;;;15.57;58.51
64711;BME280;51139;45.626;6.850;2022-07-29T09:24:42;82355.25;;;15.28;58.41
64711;BME280;51139;45.626;6.850;2022-07-29T09:27:23;82354.94;;;15.56;57.39
64711;BME280;51139;45.626;6.850;2022-07-29T09:29:58;82342.69;;;15.74;56.02
64711;BME280;51139;45.626;6.850;2022-07-29T09:32:23;82350.50;;;16.04;54.02
64711;BME280;51139;45.626;6.850;2022-07-29T09:34:49;82351.31;;;16.07;52.67
64711;BME280;51139;45.626;6.850;2022-07-29T09:37:29;82351.97;;;16.29;52.49
64711;BME280;51139;45.626;6.850;2022-07-29T09:39:55;82351.75;;;16.37;52.63
64711;BME280;51139;45.626;6.850;2022-07-29T09:42:30;82341.41;;;15.97;56.08
64711;BME280;51139;45.626;6.850;2022-07-29T09:44:57;82350.69;;;15.96;58.73
64711;BME280;51139;45.626;6.850;2022-07-29T09:47:40;82346.50;;;16.27;56.48
64711;BME280;51139;45.626;6.850;2022-07-29T09:50:06;82341.53;;;16.45;53.32
64711;BME280;51139;45.626;6.850;2022-07-29T09:52:45;82355.97;;;16.06;55.20
64711;BME280;51139;45.626;6.850;2022-07-29T09:55:11;82363.81;;;15.92;57.84
64711;BME280;51139;45.626;6.850;2022-07-29T09:57:36;82357.78;;;15.92;57.74
64711;BME280;51139;45.626;6.850;2022-07-29T10:02:34;82366.81;;;16.20;58.92
64711;BME280;51139;45.626;6.850;2022-07-29T10:05:02;82361.41;;;16.54;57.01
64711;BME280;51139;45.626;6.850;2022-07-29T10:07:55;82359.56;;;16.68;54.10
64711;BME280;51139;45.626;6.850;2022-07-29T10:13:06;82351.84;;;16.27;54.83
64711;BME280;51139;45.626;6.850;2022-07-29T10:15:35;82365.28;;;16.62;54.17
64711;BME280;51139;45.626;6.850;2022-07-29T10:18:06;82359.09;;;16.60;52.23
64711;BME280;51139;45.626;6.850;2022-07-29T10:20:32;82362.94;;;16.57;51.63
64711;BME280;51139;45.626;6.850;2022-07-29T10:22:59;82360.88;;;16.91;50.90
64711;BME280;51139;45.626;6.850;2022-07-29T10:25:25;82350.59;;;16.40;54.75
64711;BME280;51139;45.626;6.850;2022-07-29T10:27:51;82353.69;;;16.24;56.12
64711;BME280;51139;45.626;6.850;2022-07-29T10:30:18;82360.34;;;16.35;55.60
64711;BME280;51139;45.626;6.850;2022-07-29T10:38:30;82363.53;;;16.10;57.08
64711;BME280;51139;45.626;6.850;2022-07-29T10:44:02;82368.53;;;16.61;52.69
64711;BME280;51139;45.626;6.850;2022-07-29T10:46:34;82370.38;;;16.70;52.71
64711;BME280;51139;45.626;6.850;2022-07-29T10:49:07;82373.66;;;16.69;53.30
64711;BME280;51139;45.626;6.850;2022-07-29T10:54:42;82391.06;;;16.58;57.75
64711;BME280;51139;45.626;6.850;2022-07-29T10:57:28;82392.72;;;16.17;58.92
64711;BME280;51139;45.626;6.850;2022-07-29T11:05:19;82432.88;;;15.01;70.72
64711;BME280;51139;45.626;6.850;2022-07-29T11:10:36;82452.28;;;14.01;77.84
64711;BME280;51139;45.626;6.850;2022-07-29T11:13:02;82457.16;;;13.65;80.16
64711;BME280;51139;45.626;6.850;2022-07-29T11:15:27;82458.75;;;14.18;79.34
64711;BME280;51139;45.626;6.850;2022-07-29T11:20:32;82458.84;;;14.29;79.18
64711;BME280;51139;45.626;6.850;2022-07-29T11:22:58;82461.72;;;13.35;83.42
64711;BME280;51139;45.626;6.850;2022-07-29T11:25:24;82471.59;;;13.62;83.50
64711;BME280;51139;45.626;6.850;2022-07-29T11:27:51;82475.22;;;13.00;87.36
64711;BME280;51139;45.626;6.850;2022-07-29T11:30:17;82484.06;;;13.60;84.31
64711;BME280;51139;45.626;6.850;2022-07-29T11:32:44;82481.16;;;13.85;82.98
64711;BME280;51139;45.626;6.850;2022-07-29T11:35:20;82475.81;;;13.65;83.37
64711;BME280;51139;45.626;6.850;2022-07-29T11:46:11;82484.34;;;13.54;82.00
64711;BME280;51139;45.626;6.850;2022-07-29T11:48:41;82479.91;;;13.29;83.13
64711;BME280;51139;45.626;6.850;2022-07-29T11:51:10;82475.41;;;13.79;80.80
64711;BME280;51139;45.626;6.850;2022-07-29T11:53:38;82474.72;;;13.88;79.65
64711;BME280;51139;45.626;6.850;2022-07-29T11:56:04;82472.59;;;14.06;78.01
64711;BME280;51139;45.626;6.850;2022-07-29T11:58:33;82480.00;;;13.68;79.10
64711;BME280;51139;45.626;6.850;2022-07-29T12:00:59;82482.38;;;14.43;78.32
64711;BME280;51139;45.626;6.850;2022-07-29T12:03:27;82473.75;;;13.93;78.24
64711;BME280;51139;45.626;6.850;2022-07-29T12:05:53;82484.91;;;13.05;81.76
64711;BME280;51139;45.626;6.850;2022-07-29T12:08:22;82476.66;;;13.88;80.22
64711;BME280;51139;45.626;6.850;2022-07-29T12:10:50;82475.13;;;14.04;77.93
64711;BME280;51139;45.626;6.850;2022-07-29T12:13:18;82471.50;;;13.23;80.86
64711;BME280;51139;45.626;6.850;2022-07-29T12:15:57;82473.41;;;13.69;80.35
64711;BME280;51139;45.626;6.850;2022-07-29T12:18:23;82468.00;;;13.20;82.07
64711;BME280;51139;45.626;6.850;2022-07-29T12:20:56;82471.41;;;13.40;81.88
64711;BME280;51139;45.626;6.850;2022-07-29T12:23:22;82472.19;;;13.23;83.20
64711;BME280;51139;45.626;6.850;2022-07-29T12:25:47;82472.75;;;14.08;80.42
64711;BME280;51139;45.626;6.850;2022-07-29T12:28:14;82474.94;;;13.53;79.22
64711;BME280;51139;45.626;6.850;2022-07-29T12:30:48;82466.75;;;13.31;81.95
64711;BME280;51139;45.626;6.850;2022-07-29T12:33:20;82478.47;;;13.55;81.41
64711;BME280;51139;45.626;6.850;2022-07-29T12:35:51;82473.47;;;13.32;81.80
64711;BME280;51139;45.626;6.850;2022-07-29T12:38:18;82481.56;;;13.71;78.52
64711;BME280;51139;45.626;6.850;2022-07-29T12:40:45;82477.38;;;13.78;79.14
64711;BME280;51139;45.626;6.850;2022-07-29T12:43:14;82478.75;;;13.60;77.23
64711;BME280;51139;45.626;6.850;2022-07-29T12:45:41;82472.06;;;14.08;76.55
64711;BME280;51139;45.626;6.850;2022-07-29T12:48:06;82465.19;;;13.85;76.50
64711;BME280;51139;45.626;6.850;2022-07-29T12:50:35;82465.28;;;13.67;74.94
64711;BME280;51139;45.626;6.850;2022-07-29T12:53:11;82471.06;;;13.83;76.95
64711;BME280;51139;45.626;6.850;2022-07-29T12:55:48;82472.47;;;14.14;75.48
64711;BME280;51139;45.626;6.850;2022-07-29T13:06:37;82477.03;;;14.82;72.84
64711;BME280;51139;45.626;6.850;2022-07-29T13:09:50;82484.16;;;14.90;71.93
64711;BME280;51139;45.626;6.850;2022-07-29T13:12:16;82482.94;;;14.51;71.37
64711;BME280;51139;45.626;6.850;2022-07-29T13:14:44;82484.34;;;14.62;71.92
64711;BME280;51139;45.626;6.850;2022-07-29T13:17:17;82492.66;;;13.97;74.80
64711;BME280;51139;45.626;6.850;2022-07-29T13:19:45;82487.19;;;14.15;75.10
64711;BME280;51139;45.626;6.850;2022-07-29T13:22:16;82483.00;;;14.22;73.55
64711;BME280;51139;45.626;6.850;2022-07-29T13:24:55;82472.03;;;13.68;76.19
64711;BME280;51139;45.626;6.850;2022-07-29T13:27:24;82476.25;;;13.24;76.72
64711;BME280;51139;45.626;6.850;2022-07-29T13:29:50;82473.88;;;13.85;74.04
64711;BME280;51139;45.626;6.850;2022-07-29T13:32:20;82480.03;;;13.88;74.84
64711;BME280;51139;45.626;6.850;2022-07-29T13:34:46;82473.44;;;13.60;75.79
64711;BME280;51139;45.626;6.850;2022-07-29T13:37:11;82472.31;;;12.41;84.87
64711;BME280;51139;45.626;6.850;2022-07-29T13:39:37;82473.53;;;11.42;93.19
64711;BME280;51139;45.626;6.850;2022-07-29T13:42:03;82471.75;;;11.27;97.96
64711;BME280;51139;45.626;6.850;2022-07-29T13:44:29;82468.72;;;11.83;98.66
64711;BME280;51139;45.626;6.850;2022-07-29T13:46:54;82465.28;;;11.73;100.00
64711;BME280;51139;45.626;6.850;2022-07-29T13:49:20;82477.38;;;11.31;100.00
64711;BME280;51139;45.626;6.850;2022-07-29T13:51:45;82471.53;;;11.50;100.00
64711;BME280;51139;45.626;6.850;2022-07-29T13:54:10;82467.84;;;11.11;100.00